createdAt,value
2023-03-20T00:02:24.391Z,22.08
2023-03-20T00:04:55.536Z,21.60
2023-03-20T00:07:23.181Z,21.42
2023-03-20T00:09:58.042Z,19.48
2023-03-20T00:12:26.639Z,25.30
2023-03-20T00:14:54.639Z,23.80
2023-03-20T00:17:22.602Z,32.63
2023-03-20T00:19:56.328Z,25.02
2023-03-20T00:22:23.984Z,23.30
2023-03-20T00:24:52.695Z,20.40
2023-03-20T00:27:25.888Z,18.58
2023-03-20T00:29:55.038Z,37.08
2023-03-20T00:32:24.134Z,18.90
2023-03-20T00:34:54.424Z,18.80
2023-03-20T00:37:23.351Z,16.10
2023-03-20T00:39:52.221Z,20.92
2023-03-20T00:42:22.846Z,20.58
2023-03-20T00:44:55.938Z,16.95
2023-03-20T00:47:27.414Z,21.10
2023-03-20T00:49:56.348Z,19.80
2023-03-20T00:52:25.287Z,22.20
2023-03-20T00:54:53.005Z,30.67
2023-03-20T00:57:24.312Z,21.75
2023-03-20T00:59:57.549Z,30.90
2023-03-20T01:02:29.071Z,25.05
2023-03-20T01:04:58.272Z,23.17
2023-03-20T01:07:27.816Z,21.58
2023-03-20T01:09:56.349Z,18.10
2023-03-20T01:12:24.125Z,22.52
2023-03-20T01:14:56.026Z,21.27
2023-03-20T01:17:26.374Z,23.00
2023-03-20T01:19:54.284Z,21.80
2023-03-20T01:22:21.835Z,26.08
2023-03-20T01:24:49.376Z,30.38
2023-03-20T01:27:19.684Z,25.73
2023-03-20T01:29:47.735Z,26.67
2023-03-20T01:32:18.448Z,21.55
2023-03-20T01:34:49.296Z,20.65
2023-03-20T01:37:27.933Z,19.85
2023-03-20T01:40:01.257Z,24.48
2023-03-20T01:42:32.305Z,24.05
2023-03-20T01:45:00.107Z,29.90
2023-03-20T01:47:29.195Z,24.13
2023-03-20T01:50:18.741Z,22.08
2023-03-20T01:52:52.430Z,27.23
2023-03-20T01:55:21.258Z,23.55
2023-03-20T01:57:56.417Z,21.27
2023-03-20T02:00:24.229Z,21.60
2023-03-20T02:02:53.164Z,24.05
2023-03-20T02:05:40.985Z,20.73
2023-03-20T02:08:25.957Z,26.95
2023-03-20T02:10:56.382Z,22.83
2023-03-20T02:13:31.482Z,23.08
2023-03-20T02:16:16.251Z,19.92
2023-03-20T02:18:52.300Z,23.75
2023-03-20T02:21:35.699Z,19.98
2023-03-20T02:24:15.563Z,24.15
2023-03-20T02:27:11.223Z,21.23
2023-03-20T02:29:48.312Z,39.95
2023-03-20T02:32:18.993Z,23.90
2023-03-20T02:35:13.983Z,28.38
2023-03-20T02:38:02.228Z,29.42
2023-03-20T02:40:48.193Z,30.20
2023-03-20T02:43:56.586Z,29.80
2023-03-20T02:46:36.544Z,36.42
2023-03-20T02:50:00.703Z,27.63
2023-03-20T02:53:00.032Z,29.48
2023-03-20T02:55:40.149Z,34.30
2023-03-20T02:58:15.099Z,29.10
2023-03-20T03:01:11.593Z,28.50
2023-03-20T03:03:55.960Z,31.05
2023-03-20T03:06:30.049Z,26.65
2023-03-20T03:09:03.281Z,33.65
2023-03-20T03:11:36.459Z,34.75
2023-03-20T03:14:06.002Z,31.75
2023-03-20T03:16:37.767Z,34.47
2023-03-20T03:19:18.373Z,36.85
2023-03-20T03:21:48.096Z,30.58
2023-03-20T03:24:49.123Z,36.15
2023-03-20T03:27:26.214Z,27.65
2023-03-20T03:30:01.026Z,28.20
2023-03-20T03:32:34.311Z,39.30
2023-03-20T03:35:05.617Z,36.20
2023-03-20T03:37:41.296Z,35.67
2023-03-20T03:40:57.150Z,35.75
2023-03-20T03:43:34.558Z,27.02
2023-03-20T03:46:12.725Z,33.80
2023-03-20T03:48:47.724Z,40.05
2023-03-20T03:51:25.257Z,30.98
2023-03-20T03:54:22.703Z,33.65
2023-03-20T03:57:14.588Z,32.10
2023-03-20T03:59:49.965Z,40.53
2023-03-20T04:02:19.831Z,36.38
2023-03-20T04:04:51.743Z,26.70
2023-03-20T04:07:20.010Z,27.95
2023-03-20T04:09:48.007Z,31.80
2023-03-20T04:12:38.228Z,29.27
2023-03-20T04:15:10.898Z,28.10
2023-03-20T04:17:38.908Z,34.00
2023-03-20T04:20:08.268Z,26.83
2023-03-20T04:22:36.350Z,33.53
2023-03-20T04:25:16.353Z,22.13
2023-03-20T04:27:44.017Z,26.58
2023-03-20T04:30:19.602Z,23.48
2023-03-20T04:33:07.394Z,33.38
2023-03-20T04:35:44.506Z,36.40
2023-03-20T04:38:14.910Z,32.83
2023-03-20T04:40:43.530Z,34.40
2023-03-20T04:43:12.896Z,28.02
2023-03-20T04:45:41.783Z,23.92
2023-03-20T04:48:10.666Z,43.70
2023-03-20T04:50:39.481Z,30.83
2023-03-20T04:53:07.296Z,32.42
2023-03-20T04:55:41.699Z,27.25
2023-03-20T04:58:09.405Z,24.77
2023-03-20T05:00:37.083Z,37.97
2023-03-20T05:03:04.858Z,30.38
2023-03-20T05:05:34.443Z,29.73
2023-03-20T05:08:07.221Z,27.77
2023-03-20T05:10:37.610Z,37.83
2023-03-20T05:13:12.042Z,28.60
2023-03-20T05:16:01.315Z,31.13
2023-03-20T05:21:26.720Z,31.42
2023-03-20T05:24:14.634Z,30.13
2023-03-20T05:26:54.633Z,30.58
2023-03-20T05:29:47.981Z,35.50
2023-03-20T05:32:39.090Z,33.47
2023-03-20T05:35:33.179Z,34.08
2023-03-20T05:38:18.215Z,29.88
2023-03-20T05:40:59.338Z,32.70
2023-03-20T05:44:02.074Z,47.40
2023-03-20T05:46:37.509Z,35.53
2023-03-20T05:49:23.686Z,30.65
2023-03-20T05:52:13.074Z,37.25
2023-03-20T05:55:05.955Z,39.33
2023-03-20T05:57:46.875Z,28.65
2023-03-20T06:00:28.113Z,39.20
2023-03-20T06:03:15.991Z,33.45
2023-03-20T06:05:57.124Z,24.85
2023-03-20T06:08:24.892Z,42.28
2023-03-20T06:10:54.927Z,36.80
2023-03-20T06:13:22.818Z,45.58
2023-03-20T06:15:50.552Z,39.83
2023-03-20T06:18:19.174Z,36.63
2023-03-20T06:20:47.104Z,42.63
2023-03-20T06:23:15.014Z,34.55
2023-03-20T06:25:43.046Z,42.80
2023-03-20T06:28:11.010Z,37.47
2023-03-20T06:30:40.595Z,38.40
2023-03-20T06:33:14.197Z,39.50
2023-03-20T06:36:01.445Z,44.28
2023-03-20T06:38:32.489Z,51.35
2023-03-20T06:41:06.992Z,48.22
2023-03-20T06:43:35.474Z,45.03
2023-03-20T06:46:03.703Z,48.42
2023-03-20T06:48:37.358Z,33.40
2023-03-20T06:51:07.990Z,33.53
2023-03-20T06:53:46.869Z,32.80
2023-03-20T06:56:18.568Z,27.60
2023-03-20T06:58:46.857Z,32.47
2023-03-20T07:01:17.810Z,32.85
2023-03-20T07:03:46.872Z,31.65
2023-03-20T07:06:19.249Z,33.50
2023-03-20T07:08:47.118Z,29.55
2023-03-20T07:11:15.477Z,34.55
2023-03-20T07:13:43.251Z,32.20
2023-03-20T07:16:25.870Z,34.92
2023-03-20T07:18:53.905Z,26.60
2023-03-20T07:21:25.582Z,31.40
2023-03-20T07:23:53.765Z,31.13
2023-03-20T07:26:21.499Z,31.20
2023-03-20T07:28:51.525Z,31.75
2023-03-20T07:31:27.010Z,24.88
2023-03-20T07:34:03.549Z,32.33
2023-03-20T07:36:35.684Z,34.58
2023-03-20T07:39:03.737Z,30.65
2023-03-20T07:41:33.095Z,34.33
2023-03-20T07:44:08.034Z,30.88
2023-03-20T07:46:47.366Z,29.17
2023-03-20T07:49:20.494Z,33.13
2023-03-20T07:51:49.693Z,22.73
2023-03-20T07:54:17.848Z,30.05
2023-03-20T07:56:45.845Z,25.83
2023-03-20T08:01:43.114Z,26.42
2023-03-20T08:04:11.523Z,21.75
2023-03-20T08:06:39.750Z,27.38
2023-03-20T08:09:07.744Z,28.77
2023-03-20T08:11:36.202Z,211.25
2023-03-20T08:14:03.996Z,22.90
2023-03-20T08:16:31.934Z,24.35
2023-03-20T08:19:01.980Z,22.00
2023-03-20T08:21:32.213Z,26.52
2023-03-20T08:23:59.739Z,31.05
2023-03-20T08:26:27.323Z,24.98
2023-03-20T08:28:55.966Z,28.02
2023-03-20T08:31:23.461Z,21.42
2023-03-20T08:33:51.420Z,25.40
2023-03-20T08:36:20.926Z,23.70
2023-03-20T08:38:49.654Z,29.15
2023-03-20T08:41:18.242Z,41.87
2023-03-20T08:43:46.335Z,27.10
2023-03-20T08:46:14.046Z,30.27
2023-03-20T08:48:42.137Z,34.58
2023-03-20T08:51:15.105Z,30.40
2023-03-20T08:53:42.894Z,33.30
2023-03-20T08:56:10.750Z,22.73
2023-03-20T08:58:39.846Z,33.33
2023-03-20T09:01:09.255Z,23.38
2023-03-20T09:03:37.837Z,24.25
2023-03-20T09:06:07.699Z,25.75
2023-03-20T09:08:36.102Z,27.92
2023-03-20T09:11:04.743Z,35.00
2023-03-20T09:13:33.223Z,28.60
2023-03-20T09:16:01.007Z,21.58
2023-03-20T09:18:29.513Z,30.85
2023-03-20T09:20:57.339Z,25.58
2023-03-20T09:23:24.923Z,23.48
2023-03-20T09:25:52.446Z,22.83
2023-03-20T09:28:20.360Z,37.42
2023-03-20T09:30:55.944Z,29.52
2023-03-20T09:33:23.964Z,28.27
2023-03-20T09:35:52.593Z,26.38
2023-03-20T09:38:21.227Z,27.30
2023-03-20T09:41:02.894Z,20.70
2023-03-20T09:44:05.723Z,26.02
2023-03-20T09:46:52.813Z,27.95
2023-03-20T09:49:44.476Z,31.15
2023-03-20T09:52:30.203Z,25.58
2023-03-20T09:55:10.696Z,19.73
2023-03-20T09:57:49.816Z,29.80
2023-03-20T10:00:29.771Z,33.08
2023-03-20T10:03:24.766Z,31.35
2023-03-20T10:05:59.942Z,26.35
2023-03-20T10:08:34.123Z,28.20
2023-03-20T10:11:29.894Z,26.05
2023-03-20T10:14:26.179Z,22.17
2023-03-20T10:17:18.330Z,24.30
2023-03-20T10:19:59.136Z,34.55
2023-03-20T10:22:34.747Z,31.08
2023-03-20T10:25:02.236Z,28.23
2023-03-20T10:27:35.043Z,25.80
2023-03-20T10:30:08.861Z,33.97
2023-03-20T10:33:02.663Z,27.30
2023-03-20T10:35:56.529Z,31.42
2023-03-20T10:38:46.240Z,28.92
2023-03-20T10:41:18.905Z,27.50
2023-03-20T10:43:53.070Z,27.60
2023-03-20T10:46:28.607Z,34.58
2023-03-20T10:49:08.540Z,27.17
2023-03-20T10:51:50.874Z,33.17
2023-03-20T10:54:29.841Z,23.85
2023-03-20T10:57:00.599Z,33.20
2023-03-20T10:59:41.168Z,28.05
2023-03-20T11:02:15.743Z,25.05
2023-03-20T11:04:44.055Z,24.20
2023-03-20T11:07:32.300Z,26.08
2023-03-20T11:10:06.209Z,33.03
2023-03-20T11:12:40.544Z,27.85
2023-03-20T11:15:21.213Z,24.33
2023-03-20T11:17:55.235Z,23.65
2023-03-20T11:20:23.076Z,29.40
2023-03-20T11:23:00.041Z,22.88
2023-03-20T11:25:33.835Z,30.77
2023-03-20T11:28:20.825Z,18.42
2023-03-20T11:31:03.947Z,23.05
2023-03-20T11:33:38.447Z,25.52
2023-03-20T11:36:34.791Z,23.40
2023-03-20T11:39:17.466Z,21.00
2023-03-20T11:41:51.127Z,22.83
2023-03-20T11:44:23.555Z,19.02
2023-03-20T11:47:14.987Z,22.40
2023-03-20T11:49:55.404Z,19.33
2023-03-20T11:52:28.797Z,19.42
2023-03-20T11:54:58.835Z,25.63
2023-03-20T11:57:32.292Z,22.50
2023-03-20T12:00:11.544Z,27.08
2023-03-20T12:02:43.515Z,29.15
2023-03-20T12:05:30.176Z,26.58
2023-03-20T12:08:04.031Z,26.60
2023-03-20T12:10:37.504Z,28.42
2023-03-20T12:13:26.308Z,22.92
2023-03-20T12:16:06.324Z,19.45
2023-03-20T12:18:43.583Z,19.17
2023-03-20T12:21:32.091Z,15.13
2023-03-20T12:24:14.705Z,21.47
2023-03-20T12:27:05.110Z,22.77
2023-03-20T12:29:40.627Z,23.90
2023-03-20T12:32:16.462Z,20.48
2023-03-20T12:34:51.857Z,20.52
2023-03-20T12:37:20.414Z,18.67
2023-03-20T12:39:57.138Z,16.23
2023-03-20T12:43:00.809Z,23.40
2023-03-20T12:45:44.888Z,27.98
2023-03-20T12:48:50.077Z,28.80
2023-03-20T12:51:42.560Z,21.70
2023-03-20T12:54:35.476Z,14.85
2023-03-20T12:57:24.898Z,23.60
2023-03-20T13:00:04.573Z,17.13
2023-03-20T13:02:50.694Z,17.77
2023-03-20T13:05:42.324Z,22.65
2023-03-20T13:08:29.576Z,17.65
2023-03-20T13:11:01.687Z,18.85
2023-03-20T13:13:48.029Z,14.43
2023-03-20T13:17:03.728Z,14.85
2023-03-20T13:19:42.312Z,22.15
2023-03-20T13:22:31.828Z,18.83
2023-03-20T13:25:56.505Z,21.15
2023-03-20T13:28:41.312Z,18.67
2023-03-20T13:31:20.369Z,24.50
2023-03-20T13:34:22.662Z,25.07
2023-03-20T13:37:21.979Z,20.35
2023-03-20T13:40:03.297Z,20.08
2023-03-20T13:42:38.186Z,21.55
2023-03-20T13:45:35.153Z,22.13
2023-03-20T13:48:19.946Z,25.85
2023-03-20T13:51:02.237Z,18.15
2023-03-20T13:53:33.640Z,22.27
2023-03-20T13:56:15.984Z,19.88
2023-03-20T13:58:59.131Z,18.85
2023-03-20T14:01:41.594Z,23.77
2023-03-20T14:04:16.172Z,18.83
2023-03-20T14:06:49.025Z,21.10
2023-03-20T14:09:30.971Z,18.17
2023-03-20T14:12:11.683Z,17.00
2023-03-20T14:14:46.317Z,22.45
2023-03-20T14:17:22.008Z,19.52
2023-03-20T14:19:51.606Z,28.83
2023-03-20T14:22:34.481Z,25.83
2023-03-20T14:25:14.036Z,18.98
2023-03-20T14:27:58.702Z,19.52
2023-03-20T14:30:47.669Z,23.63
2023-03-20T14:33:22.423Z,22.27
2023-03-20T14:36:11.562Z,21.55
2023-03-20T14:38:55.161Z,22.65
2023-03-20T14:41:45.949Z,21.30
2023-03-20T14:44:30.925Z,22.90
2023-03-20T14:47:05.526Z,24.20
2023-03-20T14:49:42.528Z,24.48
2023-03-20T14:52:20.002Z,22.08
2023-03-20T14:54:54.428Z,17.98
2023-03-20T14:57:56.447Z,21.90
2023-03-20T15:00:33.609Z,26.55
2023-03-20T15:03:15.518Z,23.50
2023-03-20T15:05:44.531Z,45.47
2023-03-20T15:11:08.082Z,21.25
2023-03-20T15:13:37.817Z,25.25
2023-03-20T15:16:09.030Z,27.90
2023-03-20T15:18:45.950Z,16.33
2023-03-20T15:21:21.108Z,28.95
2023-03-20T15:23:49.158Z,24.10
2023-03-20T15:26:20.559Z,25.45
2023-03-20T15:28:49.467Z,18.85
2023-03-20T15:31:38.587Z,24.55
2023-03-20T15:34:17.269Z,22.10
2023-03-20T15:36:45.764Z,32.00
2023-03-20T15:39:13.581Z,26.98
2023-03-20T15:41:46.332Z,25.67
2023-03-20T15:44:37.216Z,24.42
2023-03-20T15:47:11.418Z,21.08
2023-03-20T15:49:41.247Z,25.75
2023-03-20T15:52:54.166Z,56.22
2023-03-20T15:55:24.790Z,23.65
2023-03-20T15:57:56.275Z,22.00
2023-03-20T16:00:31.567Z,26.75
2023-03-20T16:03:01.721Z,24.25
2023-03-20T16:05:30.709Z,22.95
2023-03-20T16:08:12.386Z,35.28
2023-03-20T16:10:43.328Z,27.98
2023-03-20T16:13:17.237Z,35.63
2023-03-20T16:15:46.531Z,26.55
2023-03-20T16:18:16.844Z,31.38
2023-03-20T16:21:02.200Z,26.17
2023-03-20T16:23:38.927Z,25.58
2023-03-20T16:26:11.915Z,21.98
2023-03-20T16:28:39.607Z,28.75
2023-03-20T16:31:16.322Z,31.88
2023-03-20T16:33:45.319Z,38.35
2023-03-20T16:36:22.689Z,37.55
2023-03-20T16:39:22.248Z,28.05
2023-03-20T16:42:09.147Z,36.25
2023-03-20T16:44:38.177Z,39.95
2023-03-20T16:47:23.532Z,36.47
2023-03-20T16:49:54.335Z,44.60
2023-03-20T16:52:28.639Z,45.13
2023-03-20T16:54:58.223Z,36.25
2023-03-20T16:57:28.821Z,38.50
2023-03-20T17:00:04.755Z,45.60
2023-03-20T17:02:38.327Z,43.83
2023-03-20T17:05:12.275Z,37.63
2023-03-20T17:07:42.637Z,38.80
2023-03-20T17:10:20.216Z,42.85
2023-03-20T17:12:49.881Z,42.35
2023-03-20T17:15:22.639Z,48.67
2023-03-20T17:17:51.564Z,42.65
2023-03-20T17:20:29.063Z,46.42
2023-03-20T17:22:57.078Z,43.05
2023-03-20T17:25:24.835Z,39.38
2023-03-20T17:27:52.869Z,41.78
2023-03-20T17:30:25.105Z,46.42
2023-03-20T17:32:53.322Z,47.00
2023-03-20T17:35:21.423Z,45.35
2023-03-20T17:37:49.464Z,45.47
2023-03-20T17:40:22.739Z,38.22
2023-03-20T17:42:50.500Z,39.22
2023-03-20T17:45:24.105Z,40.05
2023-03-20T17:47:52.706Z,25.38
2023-03-20T17:50:27.594Z,25.08
2023-03-20T17:52:55.414Z,32.30
2023-03-20T17:55:23.250Z,32.03
2023-03-20T17:57:51.836Z,31.10
2023-03-20T18:00:24.764Z,32.42
2023-03-20T18:02:53.054Z,32.53
2023-03-20T18:05:21.283Z,33.10
2023-03-20T18:07:49.052Z,32.40
2023-03-20T18:10:25.349Z,31.38
2023-03-20T18:12:53.108Z,27.88
2023-03-20T18:15:24.025Z,28.40
2023-03-20T18:17:51.526Z,33.25
2023-03-20T18:20:32.371Z,28.77
2023-03-20T18:23:00.973Z,24.67
2023-03-20T18:25:30.170Z,34.03
2023-03-20T18:28:00.272Z,29.30
2023-03-20T18:30:37.904Z,32.53
2023-03-20T18:33:09.086Z,26.08
2023-03-20T18:35:37.706Z,37.30
2023-03-20T18:38:06.017Z,37.08
2023-03-20T18:40:36.531Z,39.65
2023-03-20T18:43:05.181Z,32.25
2023-03-20T18:45:33.001Z,47.17
2023-03-20T18:48:20.296Z,36.17
2023-03-20T18:50:51.106Z,32.47
2023-03-20T18:53:20.647Z,40.22
2023-03-20T18:55:48.373Z,44.00
2023-03-20T18:58:24.893Z,39.25
2023-03-20T19:00:56.027Z,39.65
2023-03-20T19:03:24.779Z,42.25
2023-03-20T19:05:53.730Z,39.47
2023-03-20T19:08:22.129Z,44.50
2023-03-20T19:13:22.606Z,34.83
2023-03-20T19:15:50.610Z,29.35
2023-03-20T19:18:27.182Z,27.52
2023-03-20T19:20:57.943Z,35.20
2023-03-20T19:23:29.104Z,30.38
2023-03-20T19:25:57.213Z,34.78
2023-03-20T19:28:38.792Z,33.10
2023-03-20T19:31:12.404Z,33.40
2023-03-20T19:33:41.128Z,32.83
2023-03-20T19:36:23.123Z,30.25
2023-03-20T19:38:51.957Z,36.40
2023-03-20T19:41:20.201Z,33.78
2023-03-20T19:43:52.882Z,35.67
2023-03-20T19:46:41.562Z,38.92
2023-03-20T19:49:30.190Z,48.00
2023-03-20T19:51:58.566Z,39.75
2023-03-20T19:54:28.628Z,42.08
2023-03-20T19:56:56.778Z,41.15
2023-03-20T19:59:25.774Z,43.05
2023-03-20T20:01:54.201Z,54.90
2023-03-20T20:04:21.864Z,58.05
2023-03-20T20:06:49.891Z,78.85
2023-03-20T20:09:18.188Z,80.82
2023-03-20T20:11:46.206Z,80.10
2023-03-20T20:14:15.271Z,89.25
2023-03-20T20:16:45.757Z,83.38
2023-03-20T20:19:13.672Z,108.25
2023-03-20T20:24:31.154Z,126.53
2023-03-20T20:27:16.207Z,108.90
2023-03-20T20:29:52.712Z,127.15
2023-03-20T20:32:24.614Z,111.07
2023-03-20T20:40:31.513Z,96.00
2023-03-20T20:43:02.004Z,101.63
2023-03-20T20:45:43.794Z,105.68
2023-03-20T20:48:12.855Z,87.20
2023-03-20T20:50:43.332Z,89.60
2023-03-20T20:53:12.855Z,69.20
2023-03-20T20:55:41.698Z,76.25
2023-03-20T20:58:11.426Z,73.20
2023-03-20T21:00:50.610Z,65.38
2023-03-20T21:03:20.878Z,68.40
2023-03-20T21:05:49.206Z,79.03
2023-03-20T21:08:18.579Z,59.85
2023-03-20T21:10:47.306Z,69.50
2023-03-20T21:13:16.043Z,64.85
2023-03-20T21:15:45.756Z,75.13
2023-03-20T21:18:19.650Z,75.65
2023-03-20T21:20:47.272Z,77.50
2023-03-20T21:23:14.884Z,71.43
2023-03-20T21:25:47.617Z,84.20
2023-03-20T21:28:16.541Z,77.20
2023-03-20T21:31:08.903Z,70.22
2023-03-20T21:33:34.517Z,87.57
2023-03-20T21:36:03.146Z,86.53
2023-03-20T21:39:06.016Z,87.30
2023-03-20T21:41:18.934Z,86.55
2023-03-20T21:43:47.392Z,83.65
2023-03-20T21:52:45.823Z,88.15
2023-03-20T21:56:09.305Z,83.45
2023-03-20T22:01:14.471Z,97.20
2023-03-20T22:03:10.898Z,104.95
2023-03-20T22:06:14.425Z,98.22
2023-03-20T22:12:01.602Z,86.85
2023-03-20T22:28:55.187Z,79.95
2023-03-20T22:42:48.967Z,73.55
2023-03-20T22:45:03.275Z,81.82
2023-03-20T22:47:32.827Z,80.20
2023-03-20T22:50:00.404Z,70.03
2023-03-20T22:52:38.348Z,72.35
2023-03-20T22:55:17.529Z,82.03
2023-03-20T22:58:00.031Z,74.05
2023-03-20T23:00:40.070Z,67.70
2023-03-20T23:03:22.404Z,71.20
2023-03-20T23:05:56.524Z,75.73
2023-03-20T23:08:24.976Z,66.45
2023-03-20T23:10:52.714Z,68.60
2023-03-20T23:15:50.895Z,66.00
2023-03-20T23:18:18.748Z,66.32
2023-03-20T23:20:46.440Z,60.58
2023-03-20T23:23:14.057Z,58.55
2023-03-20T23:25:41.949Z,60.10
2023-03-20T23:28:12.411Z,55.67
2023-03-20T23:30:56.745Z,49.08
2023-03-20T23:33:27.854Z,54.65
2023-03-20T23:36:12.517Z,70.03
2023-03-20T23:38:44.350Z,62.75
2023-03-20T23:41:12.817Z,58.72
2023-03-20T23:43:40.525Z,63.67
2023-03-20T23:46:10.690Z,63.05
2023-03-20T23:48:39.337Z,61.08
2023-03-20T23:51:07.880Z,59.53
2023-03-20T23:53:35.792Z,60.60
2023-03-20T23:56:04.087Z,63.17
2023-03-20T23:58:31.977Z,59.97
